This is the latest recevied weather packets stored in our database for station/object WMSA. If no packets are shown the sender has not sent any weather packets the latest 10 day(s).
| Time | Temp. | Humidity | Pressure | Rain* | Wind** | Luminosity | Snow |
|---|---|---|---|---|---|---|---|
| 1777849792 | 25.56° C | 94% | 1009 hPa | - | - | - | - |
| 1777846197 | 25.56° C | 94% | 1008 hPa | - | - | - | - |
| 1777842592 | 25.56° C | 94% | 1008 hPa | - | - | - | - |
| 1777838992 | 25.56° C | 94% | 1008 hPa | - | - | - | - |
| 1777835392 | 25.56° C | 94% | 1009 hPa | - | - | - | - |
| 1777831791 | 26.67° C | 88% | 1009 hPa | - | - | - | - |
| 1777828197 | 26.67° C | 88% | 1010 hPa | - | - | - | - |
| 1777824591 | 26.67° C | 94% | 1011 hPa | - | - | - | - |
| 1777820994 | 26.67° C | 88% | 1010 hPa | - | - | - | - |
| 1777817391 | 26.67° C | 88% | 1009 hPa | - | - | - | - |
| 1777813791 | 25.56° C | 94% | 1008 hPa | - | - | - | - |
| 1777810196 | 26.67° C | 88% | 1008 hPa | - | - | - | - |
| 1777806593 | 26.67° C | 88% | 1007 hPa | - | - | - | - |
| 1777802991 | 25.56° C | 88% | 1007 hPa | - | - | - | - |
| 1777799391 | 25.56° C | 94% | 1006 hPa | - | - | - | - |
| 1777798185 | 25.56° C | 94% | 1006 hPa | - | - | - | - |
| 1777795796 | 25.56° C | 94% | 1007 hPa | - | - | - | - |
| 1777793983 | 25.56° C | 88% | 1007 hPa | - | - | - | - |
| 1777792784 | 27.78° C | 78% | 1007 hPa | - | - | - | - |
| 1777792190 | 27.78° C | 78% | 1007 hPa | - | - | - | - |
| 1777788591 | 31.67° C | 66% | 1007 hPa | - | - | - | - |
| 1777787983 | 31.67° C | 66% | 1008 hPa | - | - | - | - |
| 1777784990 | 32.78° C | 62% | 1009 hPa | - | - | - | - |
| 1777781395 | 32.78° C | 62% | 1010 hPa | - | - | - | - |
| 1777777790 | 31.67° C | 66% | 1010 hPa | - | - | - | - |
* Rain since midnight (hover to see other rain measurements)
** Current wind speed in m/s (hover to see current wind gust speed)